createdAt,value
2022-09-21T00:01:30.220Z,35.03
2022-09-21T00:04:02.032Z,35.75
2022-09-21T00:06:32.262Z,33.22
2022-09-21T00:08:59.844Z,31.45
2022-09-21T00:11:30.513Z,35.60
2022-09-21T00:14:04.615Z,36.25
2022-09-21T00:19:00.449Z,35.13
2022-09-21T00:21:28.343Z,35.15
2022-09-21T00:23:55.705Z,32.83
2022-09-21T00:26:26.194Z,32.58
2022-09-21T00:29:04.359Z,33.55
2022-09-21T00:31:32.890Z,35.55
2022-09-21T00:34:01.042Z,32.88
2022-09-21T00:36:28.929Z,36.20
2022-09-21T00:39:01.036Z,36.75
2022-09-21T00:41:31.457Z,33.85
2022-09-21T00:44:21.060Z,33.75
2022-09-21T00:46:52.586Z,33.67
2022-09-21T00:49:21.252Z,36.50
2022-09-21T00:51:49.762Z,33.10
2022-09-21T00:54:30.274Z,33.65
2022-09-21T00:57:03.129Z,32.65
2022-09-21T00:59:34.354Z,30.75
2022-09-21T01:02:01.984Z,31.00
2022-09-21T01:04:29.351Z,29.42
2022-09-21T01:07:00.895Z,32.88
2022-09-21T01:09:28.931Z,31.25
2022-09-21T01:12:18.501Z,30.55
2022-09-21T01:14:54.731Z,30.73
2022-09-21T01:17:43.613Z,30.77
2022-09-21T01:20:40.330Z,29.98
2022-09-21T01:23:47.830Z,33.40
2022-09-21T01:26:57.465Z,28.00
2022-09-21T01:30:00.326Z,28.83
2022-09-21T01:32:57.650Z,30.48
2022-09-21T01:35:38.155Z,26.42
2022-09-21T01:38:24.661Z,27.58
2022-09-21T01:41:03.076Z,22.13
2022-09-21T01:43:43.540Z,20.35
2022-09-21T01:46:17.573Z,20.27
2022-09-21T01:48:52.415Z,18.70
2022-09-21T01:51:22.122Z,20.27
2022-09-21T01:54:02.450Z,18.08
2022-09-21T01:56:46.649Z,19.20
2022-09-21T01:59:21.970Z,19.00
2022-09-21T02:02:20.546Z,20.20
2022-09-21T02:04:47.859Z,21.23
2022-09-21T02:07:17.756Z,24.00
2022-09-21T02:09:47.131Z,21.15
2022-09-21T02:12:18.898Z,22.55
2022-09-21T02:14:47.150Z,20.42
2022-09-21T02:17:54.677Z,18.55
2022-09-21T02:20:32.577Z,26.23
2022-09-21T02:23:34.742Z,22.52
2022-09-21T02:26:34.127Z,19.75
2022-09-21T02:29:27.659Z,25.52
2022-09-21T02:32:09.759Z,27.80
2022-09-21T02:35:08.257Z,33.33
2022-09-21T02:37:55.580Z,39.30
2022-09-21T02:40:41.669Z,61.50
2022-09-21T02:43:33.424Z,31.63
2022-09-21T02:46:15.648Z,33.65
2022-09-21T02:48:56.975Z,31.70
2022-09-21T02:51:35.469Z,36.42
2022-09-21T02:54:06.806Z,44.08
2022-09-21T02:56:35.301Z,44.47
2022-09-21T02:59:05.266Z,34.67
2022-09-21T03:01:33.953Z,30.40
2022-09-21T03:04:01.531Z,32.15
2022-09-21T03:06:29.017Z,26.45
2022-09-21T03:08:57.931Z,28.33
2022-09-21T03:11:25.776Z,22.17
2022-09-21T03:13:53.224Z,20.85
2022-09-21T03:16:20.552Z,20.50
2022-09-21T03:18:47.813Z,20.90
2022-09-21T03:21:15.048Z,20.10
2022-09-21T03:23:42.312Z,21.42
2022-09-21T03:26:09.655Z,19.92
2022-09-21T03:28:36.858Z,18.02
2022-09-21T03:31:04.152Z,19.30
2022-09-21T03:33:31.576Z,18.55
2022-09-21T03:35:59.544Z,20.98
2022-09-21T03:38:27.035Z,28.90
2022-09-21T03:40:58.183Z,23.90
2022-09-21T03:43:25.966Z,18.75
2022-09-21T03:45:54.003Z,17.85
2022-09-21T03:48:22.282Z,19.65
2022-09-21T03:50:49.658Z,15.95
2022-09-21T03:53:17.459Z,15.73
2022-09-21T03:55:44.698Z,15.73
2022-09-21T03:58:12.044Z,15.50
2022-09-21T04:00:39.375Z,26.35
2022-09-21T04:03:06.763Z,42.10
2022-09-21T04:05:34.292Z,35.17
2022-09-21T04:08:02.312Z,15.52
2022-09-21T04:10:33.138Z,16.58
2022-09-21T04:13:04.465Z,17.33
2022-09-21T04:15:32.614Z,21.00
2022-09-21T04:17:59.868Z,17.77
2022-09-21T04:20:27.341Z,22.13
2022-09-21T04:22:54.587Z,55.40
2022-09-21T04:25:21.876Z,26.48
2022-09-21T04:27:49.118Z,18.60
2022-09-21T04:30:17.861Z,16.02
2022-09-21T04:32:45.548Z,17.52
2022-09-21T04:35:12.763Z,19.48
2022-09-21T04:37:39.994Z,22.80
2022-09-21T04:40:09.458Z,17.30
2022-09-21T04:42:37.155Z,14.95
2022-09-21T04:45:05.339Z,19.88
2022-09-21T04:47:32.842Z,16.13
2022-09-21T04:50:00.026Z,17.63
2022-09-21T04:52:27.239Z,19.30
2022-09-21T04:54:54.421Z,32.15
2022-09-21T04:57:21.659Z,37.17
2022-09-21T04:59:49.116Z,32.08
2022-09-21T05:02:16.437Z,24.73
2022-09-21T05:04:47.489Z,24.40
2022-09-21T05:07:17.804Z,21.00
2022-09-21T05:10:03.294Z,17.05
2022-09-21T05:12:38.547Z,18.98
2022-09-21T05:15:07.836Z,20.20
2022-09-21T05:17:34.998Z,16.70
2022-09-21T05:20:02.600Z,18.42
2022-09-21T05:22:29.934Z,17.00
2022-09-21T05:24:57.188Z,18.73
2022-09-21T05:27:24.409Z,17.40
2022-09-21T05:29:52.054Z,17.33
2022-09-21T05:32:48.422Z,19.98
2022-09-21T05:35:27.531Z,16.20
2022-09-21T05:38:16.869Z,16.58
2022-09-21T05:40:44.820Z,16.88
2022-09-21T05:43:12.460Z,15.50
2022-09-21T05:45:51.647Z,15.77
2022-09-21T05:48:27.431Z,13.27
2022-09-21T05:51:27.939Z,12.25
2022-09-21T05:54:05.440Z,13.10
2022-09-21T05:56:50.216Z,15.65
2022-09-21T05:59:41.778Z,16.30
2022-09-21T06:02:20.769Z,11.68
2022-09-21T06:04:49.575Z,14.43
2022-09-21T06:07:16.749Z,14.35
2022-09-21T06:09:55.853Z,17.63
2022-09-21T06:12:23.068Z,16.02
2022-09-21T06:14:50.302Z,13.57
2022-09-21T06:17:17.534Z,14.18
2022-09-21T06:19:44.747Z,14.07
2022-09-21T06:22:11.899Z,11.50
2022-09-21T06:24:39.067Z,13.05
2022-09-21T06:27:06.481Z,15.48
2022-09-21T06:29:33.649Z,12.70
2022-09-21T06:32:03.823Z,11.05
2022-09-21T06:34:31.181Z,12.40
2022-09-21T06:36:58.828Z,13.43
2022-09-21T06:39:26.035Z,9.63
2022-09-21T06:41:53.379Z,11.98
2022-09-21T06:44:20.641Z,12.32
2022-09-21T06:46:47.886Z,11.60
2022-09-21T06:49:15.118Z,9.07
2022-09-21T06:51:43.400Z,9.98
2022-09-21T06:54:11.467Z,13.52
2022-09-21T06:56:38.912Z,9.20
2022-09-21T06:59:06.269Z,10.95
2022-09-21T07:01:33.487Z,12.82
2022-09-21T07:04:01.150Z,9.85
2022-09-21T07:06:29.452Z,10.85
2022-09-21T07:11:43.881Z,8.50
2022-09-21T07:14:11.096Z,17.10
2022-09-21T07:16:38.280Z,12.10
2022-09-21T07:19:13.056Z,9.32
2022-09-21T07:21:40.363Z,8.20
2022-09-21T07:24:11.908Z,6.13
2022-09-21T07:26:40.040Z,7.55
2022-09-21T07:29:07.481Z,5.63
2022-09-21T07:31:35.272Z,7.15
2022-09-21T07:34:02.627Z,6.88
2022-09-21T07:36:29.842Z,7.32
2022-09-21T07:38:57.028Z,6.28
2022-09-21T07:41:24.197Z,6.57
2022-09-21T07:43:51.463Z,7.00
2022-09-21T07:46:18.890Z,7.20
2022-09-21T07:48:46.244Z,5.82
2022-09-21T07:51:15.608Z,7.32
2022-09-21T07:53:44.842Z,9.55
2022-09-21T07:56:15.811Z,6.10
2022-09-21T07:59:02.970Z,8.63
2022-09-21T08:01:31.260Z,7.70
2022-09-21T08:03:59.646Z,4.80
2022-09-21T08:06:30.504Z,8.10
2022-09-21T08:08:58.347Z,7.28
2022-09-21T08:11:27.906Z,9.60
2022-09-21T08:14:01.783Z,9.90
2022-09-21T08:16:31.562Z,6.82
2022-09-21T08:18:58.904Z,5.03
2022-09-21T08:21:26.536Z,7.25
2022-09-21T08:23:54.348Z,5.47
2022-09-21T08:26:22.743Z,6.53
2022-09-21T08:28:52.979Z,6.80
2022-09-21T08:31:24.233Z,6.70
2022-09-21T08:33:55.860Z,7.03
2022-09-21T08:36:23.326Z,5.80
2022-09-21T08:39:00.795Z,8.02
2022-09-21T08:41:50.206Z,6.85
2022-09-21T08:44:48.817Z,5.75
2022-09-21T08:47:40.166Z,6.10
2022-09-21T08:50:34.433Z,6.43
2022-09-21T08:53:18.058Z,5.55
2022-09-21T08:55:45.358Z,5.57
2022-09-21T08:58:26.360Z,4.20
2022-09-21T09:01:08.559Z,5.32
2022-09-21T09:04:33.714Z,5.30
2022-09-21T09:07:18.829Z,4.68
2022-09-21T09:10:33.982Z,5.28
2022-09-21T09:13:36.562Z,4.40
2022-09-21T09:16:22.519Z,5.15
2022-09-21T09:19:01.897Z,5.35
2022-09-21T09:21:40.929Z,3.85
2022-09-21T09:24:39.278Z,5.63
2022-09-21T09:27:16.926Z,3.80
2022-09-21T09:30:06.557Z,5.60
2022-09-21T09:32:55.685Z,3.95
2022-09-21T09:35:35.651Z,3.35
2022-09-21T09:38:15.176Z,3.80
2022-09-21T09:40:42.568Z,4.50
2022-09-21T09:43:37.244Z,3.88
2022-09-21T09:46:15.175Z,5.82
2022-09-21T09:49:05.486Z,3.60
2022-09-21T09:51:40.652Z,3.90
2022-09-21T09:54:16.058Z,3.47
2022-09-21T09:56:44.043Z,2.92
2022-09-21T09:59:30.654Z,4.93
2022-09-21T10:02:01.323Z,3.85
2022-09-21T10:04:28.952Z,4.38
2022-09-21T10:06:56.459Z,4.00
2022-09-21T10:09:35.657Z,3.92
2022-09-21T10:12:24.062Z,2.72
2022-09-21T10:14:56.676Z,3.15
2022-09-21T10:17:25.763Z,3.00
2022-09-21T10:20:06.468Z,3.45
2022-09-21T10:22:33.799Z,2.40
2022-09-21T10:25:06.076Z,2.78
2022-09-21T10:27:43.626Z,2.25
2022-09-21T10:30:38.837Z,2.83
2022-09-21T10:33:21.065Z,2.17
2022-09-21T10:35:53.372Z,3.25
2022-09-21T10:38:29.175Z,2.50
2022-09-21T10:40:56.357Z,5.00
2022-09-21T10:43:39.853Z,4.15
2022-09-21T10:46:10.030Z,4.05
2022-09-21T10:48:37.844Z,4.47
2022-09-21T10:51:05.485Z,2.92
2022-09-21T10:53:37.544Z,2.25
2022-09-21T10:56:18.934Z,5.22
2022-09-21T10:59:13.698Z,4.43
2022-09-21T11:01:52.174Z,3.15
2022-09-21T11:04:45.805Z,3.53
2022-09-21T11:07:24.268Z,2.83
2022-09-21T11:10:19.771Z,3.53
2022-09-21T11:13:30.422Z,3.33
2022-09-21T11:16:04.639Z,4.88
2022-09-21T11:18:54.796Z,2.60
2022-09-21T11:21:53.240Z,4.80
2022-09-21T11:24:52.226Z,3.53
2022-09-21T11:27:28.110Z,3.30
2022-09-21T11:30:16.633Z,3.30
2022-09-21T11:32:57.815Z,4.03
2022-09-21T11:36:04.832Z,2.92
2022-09-21T11:39:03.694Z,3.30
2022-09-21T11:41:50.079Z,3.25
2022-09-21T11:44:46.194Z,3.20
2022-09-21T11:47:44.192Z,2.22
2022-09-21T11:50:31.147Z,4.20
2022-09-21T11:53:19.789Z,4.50
2022-09-21T11:55:52.842Z,2.83
2022-09-21T11:58:59.132Z,3.38
2022-09-21T12:01:51.632Z,3.47
2022-09-21T12:04:21.640Z,2.50
2022-09-21T12:07:32.891Z,2.35
2022-09-21T12:10:29.141Z,3.00
2022-09-21T12:13:27.524Z,2.03
2022-09-21T12:16:14.249Z,2.47
2022-09-21T12:19:16.455Z,1.63
2022-09-21T12:21:50.057Z,2.03
2022-09-21T12:24:36.108Z,3.08
2022-09-21T12:27:20.530Z,2.50
2022-09-21T12:29:54.266Z,1.67
2022-09-21T12:32:54.260Z,1.70
2022-09-21T12:36:14.878Z,5.35
2022-09-21T12:38:54.245Z,3.78
2022-09-21T12:41:55.640Z,1.50
2022-09-21T12:44:52.597Z,2.28
2022-09-21T12:47:44.497Z,2.15
2022-09-21T12:50:50.141Z,2.67
2022-09-21T12:53:27.482Z,2.65
2022-09-21T12:55:54.854Z,1.98
2022-09-21T12:58:45.841Z,2.85
2022-09-21T13:01:30.719Z,2.78
2022-09-21T13:04:18.997Z,3.58
2022-09-21T13:07:15.323Z,3.10
2022-09-21T13:09:45.360Z,3.30
2022-09-21T13:12:28.153Z,4.10
2022-09-21T13:15:13.296Z,3.45
2022-09-21T13:17:40.997Z,2.88
2022-09-21T13:20:19.966Z,3.28
2022-09-21T13:22:49.046Z,4.85
2022-09-21T13:25:27.396Z,2.95
2022-09-21T13:28:13.558Z,4.40
2022-09-21T13:30:47.606Z,4.47
2022-09-21T13:33:20.729Z,4.40
2022-09-21T13:35:48.087Z,3.97
2022-09-21T13:38:54.385Z,3.65
2022-09-21T13:41:45.444Z,3.55
2022-09-21T13:44:41.909Z,6.65
2022-09-21T13:47:12.172Z,3.47
2022-09-21T13:49:45.642Z,3.08
2022-09-21T13:52:15.872Z,3.88
2022-09-21T13:54:46.164Z,4.13
2022-09-21T13:57:28.079Z,3.40
2022-09-21T14:00:20.005Z,4.35
2022-09-21T14:03:04.348Z,3.28
2022-09-21T14:08:17.089Z,4.18
2022-09-21T14:11:23.933Z,3.38
2022-09-21T14:14:14.628Z,2.97
2022-09-21T14:16:47.710Z,5.10
2022-09-21T14:19:17.847Z,4.00
2022-09-21T14:22:07.438Z,5.28
2022-09-21T14:24:42.998Z,5.03
2022-09-21T14:27:34.683Z,4.32
2022-09-21T14:30:21.820Z,6.05
2022-09-21T14:33:20.353Z,4.13
2022-09-21T14:35:48.931Z,5.00
2022-09-21T14:38:41.963Z,3.67
2022-09-21T14:41:16.438Z,3.80
2022-09-21T14:43:54.773Z,3.15
2022-09-21T14:46:30.990Z,6.80
2022-09-21T14:49:31.297Z,4.82
2022-09-21T14:52:38.246Z,4.20
2022-09-21T14:55:41.819Z,6.47
2022-09-21T14:58:52.210Z,3.38
2022-09-21T15:01:35.336Z,2.78
2022-09-21T15:04:53.791Z,3.65
2022-09-21T15:08:17.443Z,3.80
2022-09-21T15:11:12.970Z,3.85
2022-09-21T15:13:47.664Z,6.18
2022-09-21T15:16:45.799Z,3.97
2022-09-21T15:19:30.212Z,3.88
2022-09-21T15:22:22.627Z,4.75
2022-09-21T15:24:55.656Z,4.43
2022-09-21T15:27:33.608Z,4.55
2022-09-21T15:30:05.611Z,7.30
2022-09-21T15:32:42.650Z,7.10
2022-09-21T15:35:16.180Z,4.03
2022-09-21T15:37:45.811Z,4.53
2022-09-21T15:40:27.948Z,7.45
2022-09-21T15:43:21.300Z,5.15
2022-09-21T15:46:13.532Z,5.30
2022-09-21T15:48:42.479Z,4.35
2022-09-21T15:51:47.183Z,3.95
2022-09-21T15:54:34.286Z,3.83
2022-09-21T15:57:22.395Z,4.07
2022-09-21T15:59:49.621Z,5.28
2022-09-21T16:02:25.459Z,5.03
2022-09-21T16:04:53.065Z,4.53
2022-09-21T16:07:31.900Z,3.38
2022-09-21T16:10:00.030Z,4.30
2022-09-21T16:12:27.113Z,4.05
2022-09-21T16:14:54.679Z,4.18
2022-09-21T16:17:28.716Z,5.65
2022-09-21T16:19:56.421Z,6.93
2022-09-21T16:22:47.497Z,5.75
2022-09-21T16:25:37.691Z,6.82
2022-09-21T16:28:30.792Z,4.70
2022-09-21T16:30:59.244Z,5.72
2022-09-21T16:34:18.580Z,4.13
2022-09-21T16:36:46.283Z,5.43
2022-09-21T16:39:16.531Z,8.18
2022-09-21T16:42:02.067Z,7.15
2022-09-21T16:44:34.419Z,6.03
2022-09-21T16:47:03.921Z,7.72
2022-09-21T16:49:34.915Z,5.45
2022-09-21T16:52:02.408Z,8.57
2022-09-21T16:54:30.314Z,6.15
2022-09-21T16:57:01.305Z,8.13
2022-09-21T16:59:29.289Z,5.53
2022-09-21T17:01:59.089Z,5.63
2022-09-21T17:04:31.343Z,6.30
2022-09-21T17:06:59.226Z,7.53
2022-09-21T17:09:38.972Z,6.20
2022-09-21T17:12:09.763Z,5.85
2022-09-21T17:14:42.930Z,7.15
2022-09-21T17:17:23.298Z,5.95
2022-09-21T17:19:53.781Z,6.18
2022-09-21T17:22:21.994Z,4.70
2022-09-21T17:24:52.281Z,6.78
2022-09-21T17:27:26.792Z,6.32
2022-09-21T17:32:24.729Z,6.88
2022-09-21T17:35:01.920Z,5.78
2022-09-21T17:37:29.478Z,8.98
2022-09-21T17:39:56.689Z,6.88
2022-09-21T17:42:25.869Z,8.05
2022-09-21T17:45:02.122Z,8.05
2022-09-21T17:47:33.263Z,8.35
2022-09-21T17:50:12.830Z,5.75
2022-09-21T17:53:01.274Z,7.30
2022-09-21T17:55:28.879Z,9.00
2022-09-21T17:58:42.049Z,10.27
2022-09-21T18:01:43.573Z,15.18
2022-09-21T18:04:11.329Z,20.52
2022-09-21T18:06:38.952Z,17.33
2022-09-21T18:09:07.003Z,18.80
2022-09-21T18:12:07.488Z,19.80
2022-09-21T18:14:53.033Z,16.00
2022-09-21T18:17:37.307Z,15.30
2022-09-21T18:20:43.273Z,19.17
2022-09-21T18:23:52.784Z,17.73
2022-09-21T18:26:20.863Z,15.60
2022-09-21T18:28:57.135Z,16.95
2022-09-21T18:31:58.035Z,20.05
2022-09-21T18:35:00.062Z,12.93
2022-09-21T18:38:05.316Z,14.32
2022-09-21T18:43:47.682Z,18.50
2022-09-21T18:46:38.337Z,30.98
2022-09-21T18:49:43.311Z,34.72
2022-09-21T18:53:09.572Z,21.02
2022-09-21T18:55:37.560Z,24.65
2022-09-21T18:58:05.310Z,17.42
2022-09-21T19:00:34.760Z,18.38
2022-09-21T19:03:17.666Z,17.08
2022-09-21T19:06:22.271Z,14.97
2022-09-21T19:09:22.934Z,12.48
2022-09-21T19:12:13.386Z,12.60
2022-09-21T19:14:57.472Z,12.13
2022-09-21T19:17:53.605Z,14.10
2022-09-21T19:20:57.033Z,10.93
2022-09-21T19:23:51.853Z,14.13
2022-09-21T19:26:36.045Z,17.08
2022-09-21T19:29:35.337Z,12.65
2022-09-21T19:32:02.665Z,22.50
2022-09-21T19:34:30.229Z,22.77
2022-09-21T19:37:00.912Z,25.67
2022-09-21T19:39:29.955Z,27.67
2022-09-21T19:42:36.097Z,24.60
2022-09-21T19:45:23.212Z,29.08
2022-09-21T19:48:05.064Z,23.92
2022-09-21T19:50:46.795Z,22.17
2022-09-21T19:53:34.526Z,25.05
2022-09-21T19:56:21.034Z,20.45
2022-09-21T19:59:06.980Z,20.38
2022-09-21T20:01:37.699Z,20.80
2022-09-21T20:04:06.826Z,23.48
2022-09-21T20:06:48.087Z,20.23
2022-09-21T20:09:29.287Z,14.70
2022-09-21T20:12:34.269Z,16.70
2022-09-21T20:15:12.419Z,18.85
2022-09-21T20:18:19.285Z,18.33
2022-09-21T20:20:46.618Z,20.73
2022-09-21T20:23:14.402Z,14.98
2022-09-21T20:25:57.856Z,13.60
2022-09-21T20:28:26.209Z,13.25
2022-09-21T20:30:56.493Z,12.77
2022-09-21T20:33:24.812Z,12.55
2022-09-21T20:35:55.427Z,14.15
2022-09-21T20:38:23.519Z,12.75
2022-09-21T20:40:51.685Z,14.38
2022-09-21T20:43:19.618Z,14.30
2022-09-21T20:45:49.407Z,13.00
2022-09-21T20:48:20.101Z,15.20
2022-09-21T20:50:49.400Z,15.32
2022-09-21T20:53:19.214Z,13.25
2022-09-21T20:55:55.610Z,16.50
2022-09-21T20:58:23.938Z,20.55
2022-09-21T21:00:56.412Z,22.10
2022-09-21T21:03:25.923Z,17.25
2022-09-21T21:05:53.166Z,17.15
2022-09-21T21:08:20.412Z,16.13
2022-09-21T21:10:47.706Z,14.45
2022-09-21T21:13:14.986Z,13.13
2022-09-21T21:15:42.207Z,12.88
2022-09-21T21:18:12.414Z,11.57
2022-09-21T21:20:41.047Z,12.13
2022-09-21T21:23:08.724Z,12.38
2022-09-21T21:25:36.084Z,12.45
2022-09-21T21:28:03.971Z,13.73
2022-09-21T21:30:31.580Z,13.32
2022-09-21T21:32:58.836Z,12.95
2022-09-21T21:35:26.195Z,15.45
2022-09-21T21:37:53.386Z,16.05
2022-09-21T21:40:20.917Z,20.83
2022-09-21T21:42:48.597Z,18.38
2022-09-21T21:45:15.955Z,14.63
2022-09-21T21:47:43.219Z,13.77
2022-09-21T21:50:11.545Z,15.73
2022-09-21T21:52:38.901Z,12.80
2022-09-21T21:55:07.895Z,13.63
2022-09-21T21:57:35.099Z,12.43
2022-09-21T22:00:04.158Z,10.98
2022-09-21T22:02:32.430Z,12.70
2022-09-21T22:04:59.747Z,12.45
2022-09-21T22:07:26.954Z,12.52
2022-09-21T22:09:54.283Z,10.88
2022-09-21T22:12:22.162Z,12.63
2022-09-21T22:14:49.539Z,10.98
2022-09-21T22:17:16.733Z,11.63
2022-09-21T22:19:44.066Z,15.35
2022-09-21T22:22:11.288Z,12.52
2022-09-21T22:24:38.444Z,11.80
2022-09-21T22:27:05.705Z,11.90
2022-09-21T22:29:32.929Z,13.13
2022-09-21T22:32:00.600Z,10.75
2022-09-21T22:34:27.814Z,10.80
2022-09-21T22:36:56.405Z,9.88
2022-09-21T22:39:23.609Z,10.85
2022-09-21T22:41:50.866Z,11.98
2022-09-21T22:44:18.046Z,11.70
2022-09-21T22:46:45.208Z,11.25
2022-09-21T22:49:12.407Z,11.15
2022-09-21T22:51:39.625Z,11.25
2022-09-21T22:54:06.902Z,9.68
2022-09-21T22:56:34.621Z,10.15
2022-09-21T22:59:04.867Z,8.25
2022-09-21T23:01:36.599Z,11.05
2022-09-21T23:04:08.670Z,10.20
2022-09-21T23:06:39.115Z,10.73
2022-09-21T23:09:13.672Z,8.65
2022-09-21T23:11:43.601Z,9.20
2022-09-21T23:14:15.319Z,9.65
2022-09-21T23:16:45.450Z,8.80
2022-09-21T23:19:16.217Z,12.68
2022-09-21T23:21:46.801Z,11.50
2022-09-21T23:24:14.051Z,11.88
2022-09-21T23:26:41.610Z,11.10
2022-09-21T23:29:15.119Z,10.45
2022-09-21T23:31:45.461Z,12.63
2022-09-21T23:34:14.516Z,11.93
2022-09-21T23:36:42.786Z,9.60
2022-09-21T23:39:13.474Z,9.57
2022-09-21T23:41:40.839Z,10.23
2022-09-21T23:44:08.439Z,9.25
2022-09-21T23:46:38.476Z,8.45
2022-09-21T23:49:06.269Z,12.60
2022-09-21T23:51:33.603Z,10.30
2022-09-21T23:54:01.557Z,12.38
2022-09-21T23:56:30.137Z,10.82
2022-09-21T23:58:57.752Z,12.07
